sensor_id;sensor_type;location;lat;lon;timestamp;pressure;altitude;pressure_sealevel;temperature;humidity
8569;BME280;4322;51.104;-4.162;2022-09-09T00:02:00;101715.19;;;17.01;100.00
8569;BME280;4322;51.104;-4.162;2022-09-09T00:04:30;101723.06;;;17.01;100.00
8569;BME280;4322;51.104;-4.162;2022-09-09T00:07:03;101730.00;;;17.02;100.00
8569;BME280;4322;51.104;-4.162;2022-09-09T00:09:38;101743.28;;;17.00;100.00
8569;BME280;4322;51.104;-4.162;2022-09-09T00:12:11;101772.34;;;16.99;100.00
8569;BME280;4322;51.104;-4.162;2022-09-09T00:14:48;101788.13;;;16.99;100.00
8569;BME280;4322;51.104;-4.162;2022-09-09T00:17:26;101797.84;;;16.98;100.00
8569;BME280;4322;51.104;-4.162;2022-09-09T00:20:03;101802.28;;;16.98;100.00
8569;BME280;4322;51.104;-4.162;2022-09-09T00:22:33;101806.78;;;16.96;100.00
8569;BME280;4322;51.104;-4.162;2022-09-09T00:25:08;101802.53;;;16.93;100.00
8569;BME280;4322;51.104;-4.162;2022-09-09T00:27:41;101809.78;;;16.90;100.00
8569;BME280;4322;51.104;-4.162;2022-09-09T00:30:17;101808.06;;;16.89;100.00
8569;BME280;4322;51.104;-4.162;2022-09-09T00:32:47;101810.97;;;16.84;100.00
8569;BME280;4322;51.104;-4.162;2022-09-09T00:35:18;101808.59;;;16.80;100.00
8569;BME280;4322;51.104;-4.162;2022-09-09T00:37:52;101807.94;;;16.76;100.00
8569;BME280;4322;51.104;-4.162;2022-09-09T00:40:27;101807.28;;;16.73;100.00
8569;BME280;4322;51.104;-4.162;2022-09-09T00:43:15;101816.19;;;16.70;100.00
8569;BME280;4322;51.104;-4.162;2022-09-09T00:46:10;101812.88;;;16.66;100.00
8569;BME280;4322;51.104;-4.162;2022-09-09T00:48:50;101807.78;;;16.63;100.00
8569;BME280;4322;51.104;-4.162;2022-09-09T00:51:27;101814.09;;;16.61;100.00
8569;BME280;4322;51.104;-4.162;2022-09-09T00:54:30;101819.44;;;16.59;100.00
8569;BME280;4322;51.104;-4.162;2022-09-09T00:57:11;101816.06;;;16.57;100.00
8569;BME280;4322;51.104;-4.162;2022-09-09T00:59:47;101818.78;;;16.56;100.00
8569;BME280;4322;51.104;-4.162;2022-09-09T01:02:22;101815.41;;;16.52;100.00
8569;BME280;4322;51.104;-4.162;2022-09-09T01:04:53;101813.06;;;16.48;100.00
8569;BME280;4322;51.104;-4.162;2022-09-09T01:07:22;101830.72;;;16.46;100.00
8569;BME280;4322;51.104;-4.162;2022-09-09T01:09:55;101834.38;;;16.43;100.00
8569;BME280;4322;51.104;-4.162;2022-09-09T01:12:30;101842.34;;;16.42;100.00
8569;BME280;4322;51.104;-4.162;2022-09-09T01:15:08;101845.16;;;16.39;100.00
8569;BME280;4322;51.104;-4.162;2022-09-09T01:17:46;101847.88;;;16.37;100.00
8569;BME280;4322;51.104;-4.162;2022-09-09T01:20:22;101853.31;;;16.34;100.00
8569;BME280;4322;51.104;-4.162;2022-09-09T01:23:12;101859.69;;;16.30;100.00
8569;BME280;4322;51.104;-4.162;2022-09-09T01:26:10;101861.53;;;16.28;100.00
8569;BME280;4322;51.104;-4.162;2022-09-09T01:28:43;101871.31;;;16.26;100.00
8569;BME280;4322;51.104;-4.162;2022-09-09T01:31:15;101873.19;;;16.24;100.00
8569;BME280;4322;51.104;-4.162;2022-09-09T01:33:45;101882.75;;;16.25;100.00
8569;BME280;4322;51.104;-4.162;2022-09-09T01:36:18;101881.06;;;16.24;100.00
8569;BME280;4322;51.104;-4.162;2022-09-09T01:38:48;101887.09;;;16.26;100.00
8569;BME280;4322;51.104;-4.162;2022-09-09T01:41:17;101887.09;;;16.26;100.00
8569;BME280;4322;51.104;-4.162;2022-09-09T01:43:45;101894.97;;;16.26;100.00
8569;BME280;4322;51.104;-4.162;2022-09-09T01:46:13;101894.06;;;16.27;100.00
8569;BME280;4322;51.104;-4.162;2022-09-09T01:48:42;101899.31;;;16.27;100.00
8569;BME280;4322;51.104;-4.162;2022-09-09T01:51:10;101908.13;;;16.26;100.00
8569;BME280;4322;51.104;-4.162;2022-09-09T01:53:39;101907.38;;;16.24;100.00
8569;BME280;4322;51.104;-4.162;2022-09-09T01:56:15;101905.66;;;16.23;100.00
8569;BME280;4322;51.104;-4.162;2022-09-09T01:59:02;101909.25;;;16.22;100.00
8569;BME280;4322;51.104;-4.162;2022-09-09T02:01:42;101911.19;;;16.19;100.00
8569;BME280;4322;51.104;-4.162;2022-09-09T02:04:24;101915.59;;;16.18;100.00
8569;BME280;4322;51.104;-4.162;2022-09-09T02:06:56;101917.47;;;16.16;100.00
8569;BME280;4322;51.104;-4.162;2022-09-09T02:09:26;101918.38;;;16.15;100.00
8569;BME280;4322;51.104;-4.162;2022-09-09T02:12:02;101922.88;;;16.13;100.00
8569;BME280;4322;51.104;-4.162;2022-09-09T02:14:39;101926.38;;;16.14;100.00
8569;BME280;4322;51.104;-4.162;2022-09-09T02:17:10;101934.09;;;16.17;100.00
8569;BME280;4322;51.104;-4.162;2022-09-09T02:19:45;101941.75;;;16.21;100.00
8569;BME280;4322;51.104;-4.162;2022-09-09T02:22:17;101934.44;;;16.26;100.00
8569;BME280;4322;51.104;-4.162;2022-09-09T02:24:48;101942.28;;;16.28;100.00
8569;BME280;4322;51.104;-4.162;2022-09-09T02:27:20;101932.56;;;16.28;100.00
8569;BME280;4322;51.104;-4.162;2022-09-09T02:29:53;101937.75;;;16.30;100.00
8569;BME280;4322;51.104;-4.162;2022-09-09T02:32:27;101939.38;;;16.32;100.00
8569;BME280;4322;51.104;-4.162;2022-09-09T02:34:59;101941.75;;;16.37;100.00
8569;BME280;4322;51.104;-4.162;2022-09-09T02:37:33;101947.88;;;16.37;100.00
8569;BME280;4322;51.104;-4.162;2022-09-09T02:40:03;101943.53;;;16.36;100.00
8569;BME280;4322;51.104;-4.162;2022-09-09T02:42:34;101947.09;;;16.35;100.00
8569;BME280;4322;51.104;-4.162;2022-09-09T02:45:09;101943.63;;;16.35;100.00
8569;BME280;4322;51.104;-4.162;2022-09-09T02:47:39;101942.00;;;16.32;100.00
8569;BME280;4322;51.104;-4.162;2022-09-09T02:50:13;101947.28;;;16.32;100.00
8569;BME280;4322;51.104;-4.162;2022-09-09T02:52:52;101958.66;;;16.33;100.00
8569;BME280;4322;51.104;-4.162;2022-09-09T02:55:26;101949.91;;;16.32;100.00
8569;BME280;4322;51.104;-4.162;2022-09-09T02:57:59;101956.88;;;16.33;100.00
8569;BME280;4322;51.104;-4.162;2022-09-09T03:00:30;101957.69;;;16.34;100.00
8569;BME280;4322;51.104;-4.162;2022-09-09T03:02:59;101966.38;;;16.36;100.00
8569;BME280;4322;51.104;-4.162;2022-09-09T03:05:27;101970.78;;;16.35;100.00
8569;BME280;4322;51.104;-4.162;2022-09-09T03:07:55;101969.78;;;16.38;100.00
8569;BME280;4322;51.104;-4.162;2022-09-09T03:10:23;101965.19;;;16.41;100.00
8569;BME280;4322;51.104;-4.162;2022-09-09T03:12:51;101972.91;;;16.44;100.00
8569;BME280;4322;51.104;-4.162;2022-09-09T03:15:19;101963.22;;;16.45;100.00
8569;BME280;4322;51.104;-4.162;2022-09-09T03:17:48;101970.97;;;16.48;100.00
8569;BME280;4322;51.104;-4.162;2022-09-09T03:20:17;101971.66;;;16.51;100.00
8569;BME280;4322;51.104;-4.162;2022-09-09T03:22:45;101975.00;;;16.55;100.00
8569;BME280;4322;51.104;-4.162;2022-09-09T03:25:13;101973.03;;;16.58;100.00
8569;BME280;4322;51.104;-4.162;2022-09-09T03:27:41;101974.66;;;16.61;100.00
8569;BME280;4322;51.104;-4.162;2022-09-09T03:30:10;101997.31;;;16.63;100.00
8569;BME280;4322;51.104;-4.162;2022-09-09T03:32:38;101995.66;;;16.62;100.00
8569;BME280;4322;51.104;-4.162;2022-09-09T03:35:08;101999.88;;;16.65;100.00
8569;BME280;4322;51.104;-4.162;2022-09-09T03:37:36;102004.28;;;16.64;100.00
8569;BME280;4322;51.104;-4.162;2022-09-09T03:40:09;102007.84;;;16.63;100.00
8569;BME280;4322;51.104;-4.162;2022-09-09T03:42:38;101998.28;;;16.62;100.00
8569;BME280;4322;51.104;-4.162;2022-09-09T03:45:08;102014.81;;;16.64;100.00
8569;BME280;4322;51.104;-4.162;2022-09-09T03:47:37;102009.56;;;16.64;100.00
8569;BME280;4322;51.104;-4.162;2022-09-09T03:50:05;102011.34;;;16.64;100.00
8569;BME280;4322;51.104;-4.162;2022-09-09T03:52:39;102006.94;;;16.64;100.00
8569;BME280;4322;51.104;-4.162;2022-09-09T03:55:09;102002.59;;;16.63;100.00
8569;BME280;4322;51.104;-4.162;2022-09-09T03:57:37;101999.94;;;16.63;100.00
8569;BME280;4322;51.104;-4.162;2022-09-09T04:00:10;102005.31;;;16.62;100.00
8569;BME280;4322;51.104;-4.162;2022-09-09T04:02:38;101993.16;;;16.59;100.00
8569;BME280;4322;51.104;-4.162;2022-09-09T04:05:06;102003.88;;;16.56;100.00
8569;BME280;4322;51.104;-4.162;2022-09-09T04:07:34;102001.41;;;16.53;100.00
8569;BME280;4322;51.104;-4.162;2022-09-09T04:10:05;101997.03;;;16.52;100.00
8569;BME280;4322;51.104;-4.162;2022-09-09T04:12:33;101998.81;;;16.52;100.00
8569;BME280;4322;51.104;-4.162;2022-09-09T04:15:02;101997.97;;;16.51;100.00
8569;BME280;4322;51.104;-4.162;2022-09-09T04:17:30;102000.53;;;16.53;100.00
8569;BME280;4322;51.104;-4.162;2022-09-09T04:19:59;102001.41;;;16.53;100.00
8569;BME280;4322;51.104;-4.162;2022-09-09T04:22:27;102002.16;;;16.55;100.00
8569;BME280;4322;51.104;-4.162;2022-09-09T04:24:55;102000.38;;;16.56;100.00
8569;BME280;4322;51.104;-4.162;2022-09-09T04:27:24;101996.81;;;16.57;100.00
8569;BME280;4322;51.104;-4.162;2022-09-09T04:29:52;102011.66;;;16.58;100.00
8569;BME280;4322;51.104;-4.162;2022-09-09T04:32:22;102003.88;;;16.56;100.00
8569;BME280;4322;51.104;-4.162;2022-09-09T04:34:51;101992.59;;;16.54;100.00
8569;BME280;4322;51.104;-4.162;2022-09-09T04:37:19;101985.59;;;16.53;100.00
8569;BME280;4322;51.104;-4.162;2022-09-09T04:39:46;101990.13;;;16.50;100.00
8569;BME280;4322;51.104;-4.162;2022-09-09T04:42:14;101994.66;;;16.48;100.00
8569;BME280;4322;51.104;-4.162;2022-09-09T04:44:44;101998.13;;;16.48;100.00
8569;BME280;4322;51.104;-4.162;2022-09-09T04:47:12;101995.34;;;16.51;100.00
8569;BME280;4322;51.104;-4.162;2022-09-09T04:49:40;101998.75;;;16.53;100.00
8569;BME280;4322;51.104;-4.162;2022-09-09T04:52:08;101996.06;;;16.55;100.00
8569;BME280;4322;51.104;-4.162;2022-09-09T04:54:36;102010.84;;;16.57;100.00
8569;BME280;4322;51.104;-4.162;2022-09-09T04:57:05;102015.00;;;16.61;100.00
8569;BME280;4322;51.104;-4.162;2022-09-09T04:59:33;102031.53;;;16.63;100.00
8569;BME280;4322;51.104;-4.162;2022-09-09T05:02:03;102027.06;;;16.65;100.00
8569;BME280;4322;51.104;-4.162;2022-09-09T05:04:31;102039.44;;;16.63;100.00
8569;BME280;4322;51.104;-4.162;2022-09-09T05:06:59;102045.97;;;16.56;100.00
8569;BME280;4322;51.104;-4.162;2022-09-09T05:09:27;102045.75;;;16.44;100.00
8569;BME280;4322;51.104;-4.162;2022-09-09T05:11:55;102069.31;;;16.30;100.00
8569;BME280;4322;51.104;-4.162;2022-09-09T05:14:24;102074.69;;;15.94;100.00
8569;BME280;4322;51.104;-4.162;2022-09-09T05:16:53;102097.38;;;15.61;100.00
8569;BME280;4322;51.104;-4.162;2022-09-09T05:19:22;102081.38;;;15.29;100.00
8569;BME280;4322;51.104;-4.162;2022-09-09T05:21:50;102042.78;;;15.13;100.00
8569;BME280;4322;51.104;-4.162;2022-09-09T05:24:18;102021.91;;;15.10;100.00
8569;BME280;4322;51.104;-4.162;2022-09-09T05:26:46;101966.13;;;15.05;100.00
8569;BME280;4322;51.104;-4.162;2022-09-09T05:29:14;101922.72;;;14.98;100.00
8569;BME280;4322;51.104;-4.162;2022-09-09T05:31:45;101907.50;;;14.87;100.00
8569;BME280;4322;51.104;-4.162;2022-09-09T05:34:16;101851.84;;;14.80;100.00
8569;BME280;4322;51.104;-4.162;2022-09-09T05:36:45;101837.25;;;14.75;100.00
8569;BME280;4322;51.104;-4.162;2022-09-09T05:39:14;101805.13;;;14.70;100.00
8569;BME280;4322;51.104;-4.162;2022-09-09T05:41:44;101788.59;;;14.68;100.00
8569;BME280;4322;51.104;-4.162;2022-09-09T05:44:12;101762.59;;;14.63;100.00
8569;BME280;4322;51.104;-4.162;2022-09-09T05:46:41;101740.16;;;14.58;100.00
8569;BME280;4322;51.104;-4.162;2022-09-09T05:49:09;101726.41;;;14.53;100.00
8569;BME280;4322;51.104;-4.162;2022-09-09T05:51:38;101707.13;;;14.54;100.00
8569;BME280;4322;51.104;-4.162;2022-09-09T05:54:08;101669.47;;;14.55;100.00
8569;BME280;4322;51.104;-4.162;2022-09-09T05:56:36;101630.13;;;14.55;100.00
8569;BME280;4322;51.104;-4.162;2022-09-09T05:59:04;101617.75;;;14.57;100.00
8569;BME280;4322;51.104;-4.162;2022-09-09T06:01:35;101595.84;;;14.58;100.00
8569;BME280;4322;51.104;-4.162;2022-09-09T06:04:07;101559.06;;;14.59;100.00
8569;BME280;4322;51.104;-4.162;2022-09-09T06:06:38;101530.97;;;14.61;100.00
8569;BME280;4322;51.104;-4.162;2022-09-09T06:09:09;101502.88;;;14.63;100.00
8569;BME280;4322;51.104;-4.162;2022-09-09T06:11:38;101465.13;;;14.66;100.00
8569;BME280;4322;51.104;-4.162;2022-09-09T06:14:07;101450.13;;;14.68;100.00
8569;BME280;4322;51.104;-4.162;2022-09-09T06:16:35;101437.63;;;14.73;100.00
8569;BME280;4322;51.104;-4.162;2022-09-09T06:19:04;101424.06;;;14.80;100.00
8569;BME280;4322;51.104;-4.162;2022-09-09T06:21:34;101398.47;;;14.84;100.00
8569;BME280;4322;51.104;-4.162;2022-09-09T06:24:04;101386.63;;;14.93;100.00
8569;BME280;4322;51.104;-4.162;2022-09-09T06:26:35;101366.03;;;15.01;100.00
8569;BME280;4322;51.104;-4.162;2022-09-09T06:29:04;101356.78;;;15.09;100.00
8569;BME280;4322;51.104;-4.162;2022-09-09T06:31:33;101352.88;;;15.16;100.00
8569;BME280;4322;51.104;-4.162;2022-09-09T06:34:04;101327.94;;;15.23;100.00
8569;BME280;4322;51.104;-4.162;2022-09-09T06:36:34;101314.50;;;15.28;100.00
8569;BME280;4322;51.104;-4.162;2022-09-09T06:39:04;101291.56;;;15.31;100.00
8569;BME280;4322;51.104;-4.162;2022-09-09T06:41:39;101276.72;;;15.30;100.00
8569;BME280;4322;51.104;-4.162;2022-09-09T06:44:07;101260.22;;;15.28;100.00
8569;BME280;4322;51.104;-4.162;2022-09-09T06:46:38;101253.38;;;15.26;100.00
8569;BME280;4322;51.104;-4.162;2022-09-09T06:49:07;101229.06;;;15.22;100.00
8569;BME280;4322;51.104;-4.162;2022-09-09T06:51:37;101200.19;;;15.22;100.00
8569;BME280;4322;51.104;-4.162;2022-09-09T06:54:10;101169.44;;;15.24;100.00
8569;BME280;4322;51.104;-4.162;2022-09-09T06:56:40;101136.97;;;15.25;100.00
8569;BME280;4322;51.104;-4.162;2022-09-09T06:59:10;101071.81;;;15.32;100.00
8569;BME280;4322;51.104;-4.162;2022-09-09T07:01:39;101020.66;;;15.37;100.00
8569;BME280;4322;51.104;-4.162;2022-09-09T07:04:08;100987.78;;;15.44;100.00
8569;BME280;4322;51.104;-4.162;2022-09-09T07:06:38;100956.75;;;15.51;100.00
8569;BME280;4322;51.104;-4.162;2022-09-09T07:09:08;100922.19;;;15.57;100.00
8569;BME280;4322;51.104;-4.162;2022-09-09T07:11:40;100885.81;;;15.64;100.00
8569;BME280;4322;51.104;-4.162;2022-09-09T07:14:09;100898.88;;;15.65;100.00
8569;BME280;4322;51.104;-4.162;2022-09-09T07:16:39;100884.47;;;15.71;100.00
8569;BME280;4322;51.104;-4.162;2022-09-09T07:19:07;100866.59;;;15.76;100.00
8569;BME280;4322;51.104;-4.162;2022-09-09T07:21:35;100861.94;;;15.79;100.00
8569;BME280;4322;51.104;-4.162;2022-09-09T07:24:03;100838.31;;;15.79;100.00
8569;BME280;4322;51.104;-4.162;2022-09-09T07:26:34;100850.38;;;15.82;100.00
8569;BME280;4322;51.104;-4.162;2022-09-09T07:29:04;100802.66;;;15.88;100.00
8569;BME280;4322;51.104;-4.162;2022-09-09T07:31:33;100804.97;;;15.92;100.00
8569;BME280;4322;51.104;-4.162;2022-09-09T07:34:04;100822.00;;;15.99;100.00
8569;BME280;4322;51.104;-4.162;2022-09-09T07:36:34;100857.53;;;16.05;100.00
8569;BME280;4322;51.104;-4.162;2022-09-09T07:39:05;100872.88;;;16.11;100.00
8569;BME280;4322;51.104;-4.162;2022-09-09T07:41:34;100913.56;;;16.18;100.00
8569;BME280;4322;51.104;-4.162;2022-09-09T07:44:09;100928.91;;;16.24;100.00
8569;BME280;4322;51.104;-4.162;2022-09-09T07:46:38;100946.03;;;16.30;100.00
8569;BME280;4322;51.104;-4.162;2022-09-09T07:49:08;100972.13;;;16.33;100.00
8569;BME280;4322;51.104;-4.162;2022-09-09T07:51:38;101007.06;;;16.35;100.00
8569;BME280;4322;51.104;-4.162;2022-09-09T07:54:08;101012.44;;;16.33;100.00
8569;BME280;4322;51.104;-4.162;2022-09-09T07:56:38;101017.78;;;16.32;100.00
8569;BME280;4322;51.104;-4.162;2022-09-09T07:59:08;101023.06;;;16.32;100.00
8569;BME280;4322;51.104;-4.162;2022-09-09T08:01:39;101042.19;;;16.34;100.00
8569;BME280;4322;51.104;-4.162;2022-09-09T08:04:09;101064.72;;;16.38;100.00
8569;BME280;4322;51.104;-4.162;2022-09-09T08:06:43;101074.91;;;16.42;100.00
8569;BME280;4322;51.104;-4.162;2022-09-09T08:09:11;101078.06;;;16.47;100.00
8569;BME280;4322;51.104;-4.162;2022-09-09T08:11:40;101069.47;;;16.58;100.00
8569;BME280;4322;51.104;-4.162;2022-09-09T08:14:10;101069.78;;;16.66;100.00
8569;BME280;4322;51.104;-4.162;2022-09-09T08:16:40;101086.72;;;16.75;100.00
8569;BME280;4322;51.104;-4.162;2022-09-09T08:19:08;101067.88;;;16.81;100.00
8569;BME280;4322;51.104;-4.162;2022-09-09T08:21:38;101059.03;;;16.82;100.00
8569;BME280;4322;51.104;-4.162;2022-09-09T08:24:08;101048.50;;;16.82;100.00
8569;BME280;4322;51.104;-4.162;2022-09-09T08:26:39;101054.38;;;16.85;100.00
8569;BME280;4322;51.104;-4.162;2022-09-09T08:29:10;101054.78;;;16.92;100.00
8569;BME280;4322;51.104;-4.162;2022-09-09T08:31:41;101049.31;;;16.95;100.00
8569;BME280;4322;51.104;-4.162;2022-09-09T08:34:09;101050.75;;;16.99;100.00
8569;BME280;4322;51.104;-4.162;2022-09-09T08:36:39;101054.53;;;17.07;100.00
8569;BME280;4322;51.104;-4.162;2022-09-09T08:39:10;101062.13;;;17.12;100.00
8569;BME280;4322;51.104;-4.162;2022-09-09T08:41:52;101057.03;;;17.21;100.00
8569;BME280;4322;51.104;-4.162;2022-09-09T08:44:32;101091.47;;;17.31;100.00
8569;BME280;4322;51.104;-4.162;2022-09-09T08:47:10;101087.44;;;17.38;100.00
8569;BME280;4322;51.104;-4.162;2022-09-09T08:49:56;101074.75;;;17.43;100.00
8569;BME280;4322;51.104;-4.162;2022-09-09T08:52:29;101090.66;;;17.54;100.00
8569;BME280;4322;51.104;-4.162;2022-09-09T08:55:05;101073.25;;;17.52;100.00
8569;BME280;4322;51.104;-4.162;2022-09-09T08:57:38;101048.50;;;17.54;100.00
8569;BME280;4322;51.104;-4.162;2022-09-09T09:00:10;101055.81;;;17.62;100.00
8569;BME280;4322;51.104;-4.162;2022-09-09T09:02:44;101062.78;;;17.63;100.00
8569;BME280;4322;51.104;-4.162;2022-09-09T09:05:20;101093.56;;;17.62;100.00
8569;BME280;4322;51.104;-4.162;2022-09-09T09:08:01;101140.19;;;17.62;100.00
8569;BME280;4322;51.104;-4.162;2022-09-09T09:10:39;101207.06;;;17.61;100.00
8569;BME280;4322;51.104;-4.162;2022-09-09T09:13:15;101270.72;;;17.67;100.00
8569;BME280;4322;51.104;-4.162;2022-09-09T09:15:47;101341.78;;;17.69;100.00
8569;BME280;4322;51.104;-4.162;2022-09-09T09:18:17;101452.28;;;17.72;100.00
8569;BME280;4322;51.104;-4.162;2022-09-09T09:20:50;101542.19;;;17.69;100.00
8569;BME280;4322;51.104;-4.162;2022-09-09T09:23:24;101618.41;;;17.72;100.00
8569;BME280;4322;51.104;-4.162;2022-09-09T09:25:56;101685.84;;;17.76;100.00
8569;BME280;4322;51.104;-4.162;2022-09-09T09:28:29;101764.09;;;17.75;100.00
8569;BME280;4322;51.104;-4.162;2022-09-09T09:31:03;101811.75;;;17.72;100.00
8569;BME280;4322;51.104;-4.162;2022-09-09T09:33:36;101873.72;;;17.65;100.00
8569;BME280;4322;51.104;-4.162;2022-09-09T09:36:10;101914.94;;;17.52;100.00
8569;BME280;4322;51.104;-4.162;2022-09-09T09:38:39;101941.53;;;17.34;100.00
8569;BME280;4322;51.104;-4.162;2022-09-09T09:41:32;101958.13;;;17.20;100.00
8569;BME280;4322;51.104;-4.162;2022-09-09T09:44:02;101957.53;;;17.15;100.00
8569;BME280;4322;51.104;-4.162;2022-09-09T09:46:32;101944.34;;;17.15;100.00
8569;BME280;4322;51.104;-4.162;2022-09-09T09:49:02;101930.84;;;17.21;100.00
8569;BME280;4322;51.104;-4.162;2022-09-09T09:51:32;101910.44;;;17.24;100.00
8569;BME280;4322;51.104;-4.162;2022-09-09T09:54:18;101899.03;;;17.24;100.00
8569;BME280;4322;51.104;-4.162;2022-09-09T09:56:50;101903.59;;;17.36;100.00
8569;BME280;4322;51.104;-4.162;2022-09-09T09:59:32;101912.22;;;17.54;100.00
8569;BME280;4322;51.104;-4.162;2022-09-09T10:02:14;101917.81;;;17.63;100.00
8569;BME280;4322;51.104;-4.162;2022-09-09T10:04:42;101913.00;;;17.70;100.00
8569;BME280;4322;51.104;-4.162;2022-09-09T10:07:13;101939.56;;;17.81;100.00
8569;BME280;4322;51.104;-4.162;2022-09-09T10:09:43;102005.72;;;17.92;100.00
8569;BME280;4322;51.104;-4.162;2022-09-09T10:12:22;102057.47;;;18.09;100.00
8569;BME280;4322;51.104;-4.162;2022-09-09T10:14:59;102102.03;;;18.13;100.00
8569;BME280;4322;51.104;-4.162;2022-09-09T10:17:38;102129.13;;;18.17;100.00
8569;BME280;4322;51.104;-4.162;2022-09-09T10:20:22;102144.59;;;18.23;100.00
8569;BME280;4322;51.104;-4.162;2022-09-09T10:23:07;102154.22;;;18.38;100.00
8569;BME280;4322;51.104;-4.162;2022-09-09T10:29:03;102139.19;;;18.54;100.00
8569;BME280;4322;51.104;-4.162;2022-09-09T10:31:39;102117.53;;;18.63;100.00
8569;BME280;4322;51.104;-4.162;2022-09-09T10:34:22;102102.91;;;18.72;100.00
8569;BME280;4322;51.104;-4.162;2022-09-09T10:36:57;102085.06;;;18.75;100.00
8569;BME280;4322;51.104;-4.162;2022-09-09T10:39:34;102066.00;;;18.70;100.00
8569;BME280;4322;51.104;-4.162;2022-09-09T10:42:11;102040.00;;;18.64;100.00
8569;BME280;4322;51.104;-4.162;2022-09-09T10:44:50;102040.44;;;18.71;100.00
8569;BME280;4322;51.104;-4.162;2022-09-09T10:47:34;102034.78;;;18.77;100.00
8569;BME280;4322;51.104;-4.162;2022-09-09T10:50:29;102027.22;;;18.85;100.00
8569;BME280;4322;51.104;-4.162;2022-09-09T10:53:30;102034.34;;;18.97;100.00
8569;BME280;4322;51.104;-4.162;2022-09-09T10:56:06;102017.50;;;18.85;100.00
8569;BME280;4322;51.104;-4.162;2022-09-09T10:58:39;101996.69;;;18.67;100.00
8569;BME280;4322;51.104;-4.162;2022-09-09T11:01:15;102028.84;;;18.59;100.00
8569;BME280;4322;51.104;-4.162;2022-09-09T11:03:45;102034.78;;;18.63;100.00
8569;BME280;4322;51.104;-4.162;2022-09-09T11:06:19;102044.25;;;18.67;100.00
8569;BME280;4322;51.104;-4.162;2022-09-09T11:08:49;102020.53;;;18.65;100.00
8569;BME280;4322;51.104;-4.162;2022-09-09T11:11:29;102019.81;;;18.63;100.00
8569;BME280;4322;51.104;-4.162;2022-09-09T11:14:01;102020.34;;;18.68;100.00
8569;BME280;4322;51.104;-4.162;2022-09-09T11:16:36;102020.34;;;18.68;100.00
8569;BME280;4322;51.104;-4.162;2022-09-09T11:19:14;102026.50;;;18.69;100.00
8569;BME280;4322;51.104;-4.162;2022-09-09T11:21:47;102001.19;;;18.65;100.00
8569;BME280;4322;51.104;-4.162;2022-09-09T11:24:19;101981.28;;;18.73;100.00
8569;BME280;4322;51.104;-4.162;2022-09-09T11:26:51;101985.16;;;18.82;100.00
8569;BME280;4322;51.104;-4.162;2022-09-09T11:29:38;101977.22;;;18.82;100.00
8569;BME280;4322;51.104;-4.162;2022-09-09T11:32:25;101976.38;;;18.67;100.00
8569;BME280;4322;51.104;-4.162;2022-09-09T11:35:06;101989.47;;;18.56;100.00
8569;BME280;4322;51.104;-4.162;2022-09-09T11:37:53;101989.72;;;18.66;100.00
8569;BME280;4322;51.104;-4.162;2022-09-09T11:40:30;102004.94;;;18.89;100.00
8569;BME280;4322;51.104;-4.162;2022-09-09T11:43:04;101988.81;;;18.93;100.00
8569;BME280;4322;51.104;-4.162;2022-09-09T11:45:34;101992.56;;;18.89;100.00
8569;BME280;4322;51.104;-4.162;2022-09-09T11:48:03;101992.03;;;18.70;100.00
8569;BME280;4322;51.104;-4.162;2022-09-09T11:50:35;101997.31;;;18.70;100.00
8569;BME280;4322;51.104;-4.162;2022-09-09T11:53:22;102026.16;;;19.01;100.00
8569;BME280;4322;51.104;-4.162;2022-09-09T11:56:04;102001.47;;;19.15;100.00
8569;BME280;4322;51.104;-4.162;2022-09-09T11:58:44;102001.28;;;19.18;100.00
8569;BME280;4322;51.104;-4.162;2022-09-09T12:01:34;102000.22;;;19.21;100.00
8569;BME280;4322;51.104;-4.162;2022-09-09T12:04:26;102003.47;;;19.24;100.00
8569;BME280;4322;51.104;-4.162;2022-09-09T12:06:59;101987.94;;;19.20;100.00
8569;BME280;4322;51.104;-4.162;2022-09-09T12:09:43;101994.16;;;19.19;100.00
8569;BME280;4322;51.104;-4.162;2022-09-09T12:12:25;101996.88;;;19.05;100.00
8569;BME280;4322;51.104;-4.162;2022-09-09T12:15:22;101990.03;;;18.88;100.00
8569;BME280;4322;51.104;-4.162;2022-09-09T12:17:53;102004.69;;;18.79;100.00
8569;BME280;4322;51.104;-4.162;2022-09-09T12:20:33;102015.06;;;18.82;100.00
8569;BME280;4322;51.104;-4.162;2022-09-09T12:26:20;102036.53;;;19.31;100.00
8569;BME280;4322;51.104;-4.162;2022-09-09T12:29:01;102059.94;;;19.77;100.00
8569;BME280;4322;51.104;-4.162;2022-09-09T12:31:35;102009.47;;;19.92;100.00
8569;BME280;4322;51.104;-4.162;2022-09-09T12:34:14;101979.09;;;19.85;100.00
8569;BME280;4322;51.104;-4.162;2022-09-09T12:36:46;101978.47;;;19.56;100.00
8569;BME280;4322;51.104;-4.162;2022-09-09T12:39:25;101987.22;;;19.30;100.00
8569;BME280;4322;51.104;-4.162;2022-09-09T12:41:57;102004.69;;;19.06;100.00
8569;BME280;4322;51.104;-4.162;2022-09-09T12:44:26;102034.47;;;18.95;100.00
8569;BME280;4322;51.104;-4.162;2022-09-09T12:46:56;102055.34;;;19.27;100.00
8569;BME280;4322;51.104;-4.162;2022-09-09T12:49:30;102068.44;;;19.82;100.00
8569;BME280;4322;51.104;-4.162;2022-09-09T12:52:02;102044.16;;;20.27;100.00
8569;BME280;4322;51.104;-4.162;2022-09-09T12:54:33;101978.03;;;20.51;100.00
8569;BME280;4322;51.104;-4.162;2022-09-09T12:57:05;101941.72;;;20.40;100.00
8569;BME280;4322;51.104;-4.162;2022-09-09T12:59:37;101948.63;;;20.05;100.00
8569;BME280;4322;51.104;-4.162;2022-09-09T13:02:18;101979.28;;;19.57;100.00
8569;BME280;4322;51.104;-4.162;2022-09-09T13:04:47;102010.56;;;18.97;100.00
8569;BME280;4322;51.104;-4.162;2022-09-09T13:07:17;102082.88;;;18.39;100.00
8569;BME280;4322;51.104;-4.162;2022-09-09T13:09:47;102160.25;;;17.96;100.00
8569;BME280;4322;51.104;-4.162;2022-09-09T13:12:19;102218.38;;;17.63;100.00
8569;BME280;4322;51.104;-4.162;2022-09-09T13:14:49;102250.91;;;17.31;100.00
8569;BME280;4322;51.104;-4.162;2022-09-09T13:17:21;102253.41;;;17.17;100.00
8569;BME280;4322;51.104;-4.162;2022-09-09T13:19:50;102257.13;;;17.13;100.00
8569;BME280;4322;51.104;-4.162;2022-09-09T13:22:23;102263.00;;;17.18;100.00
8569;BME280;4322;51.104;-4.162;2022-09-09T13:25:02;102222.91;;;17.28;100.00
8569;BME280;4322;51.104;-4.162;2022-09-09T13:27:34;102160.44;;;17.31;100.00